Time;durP1;ratioP1;P1;durP2;ratioP2;P2;SDS_P1;SDS_P2;PMS_P1;PMS_P2;Temp;Humidity;BMP_temperature;BMP_pressure;BME280_temperature;BME280_humidity;BME280_pressure;Samples;Min_cycle;Max_cycle;Signal;HPM_P1;HPM_P2
2023/04/01 00:00:14;;;;;;;8.70;4.07;;;;;;;-148.88;100.00;74562.75;5056651;28;20089;-90
2023/04/01 00:02:40;;;;;;;11.23;7.63;;;;;;;-148.88;100.00;74564.78;5074036;28;20466;-88
2023/04/01 00:05:06;;;;;;;8.98;4.22;;;;;;;-148.88;100.00;74560.72;5074337;28;20028;-89
2023/04/01 00:07:32;;;;;;;12.32;8.13;;;;;;;-148.88;100.00;74558.69;5073910;28;20060;-89
2023/04/01 00:09:58;;;;;;;8.63;4.00;;;;;;;-148.88;100.00;74556.66;5055751;28;20052;-88
2023/04/01 00:12:24;;;;;;;7.50;3.65;;;;;;;-148.88;100.00;74562.75;5056573;28;20094;-88
2023/04/01 00:14:50;;;;;;;10.23;4.05;;;;;;;-148.88;100.00;74554.63;5055782;28;20046;-88
2023/04/01 00:17:15;;;;;;;8.38;3.65;;;;;;;-148.88;100.00;74566.81;5073839;28;20095;-88
2023/04/01 00:19:41;;;;;;;12.05;6.90;;;;;;;-148.88;100.00;74556.66;5073765;28;20108;-88
2023/04/01 00:22:07;;;;;;;10.90;7.15;;;;;;;-148.88;100.00;74566.81;5073950;28;20025;-87
2023/04/01 00:24:32;;;;;;;9.60;3.50;;;;;;;-148.88;100.00;74564.78;5073738;28;20479;-89
2023/04/01 00:26:57;;;;;;;6.55;3.45;;;;;;;-148.88;100.00;74558.69;5055619;28;20040;-88
2023/04/01 00:29:24;;;;;;;6.35;3.42;;;;;;;-148.88;100.00;74558.69;5074025;28;20028;-88
2023/04/01 00:31:49;;;;;;;7.95;3.22;;;;;;;-148.88;100.00;74562.75;5055652;28;20024;-88
2023/04/01 00:34:15;;;;;;;7.45;5.43;;;;;;;-148.88;100.00;74570.88;5073594;28;20111;-88
2023/04/01 00:36:40;;;;;;;8.18;5.53;;;;;;;-148.88;100.00;74566.81;5073532;28;20024;-88
2023/04/01 00:39:05;;;;;;;5.80;3.08;;;;;;;-148.88;100.00;74568.84;5055491;28;20075;-88
2023/04/01 00:41:31;;;;;;;9.50;4.97;;;;;;;-148.88;100.00;74558.69;5073399;28;20021;-88
2023/04/01 00:44:20;;;;;;;5.47;2.97;;;;;;;-148.88;100.00;74558.69;5073569;28;20360;-87
2023/04/01 00:46:45;;;;;;;7.97;2.65;;;;;;;-148.88;100.00;74562.75;5072940;28;20017;-88
2023/04/01 00:49:11;;;;;;;5.90;2.75;;;;;;;-148.88;100.00;74556.66;5073233;28;20046;-87
2023/04/01 00:51:38;;;;;;;7.13;3.03;;;;;;;-148.88;100.00;74562.75;5073337;28;20028;-88
2023/04/01 00:54:05;;;;;;;7.38;2.50;;;;;;;-148.88;100.00;74562.75;5055338;28;20508;-88
2023/04/01 00:56:38;;;;;;;5.75;2.53;;;;;;;-148.88;100.00;74558.69;5073247;28;20021;-87
2023/04/01 00:59:27;;;;;;;7.38;2.40;;;;;;;-148.88;100.00;74566.81;5055450;28;20028;-88
2023/04/01 01:02:15;;;;;;;4.95;2.10;;;;;;;-148.88;100.00;74566.81;5054501;28;20158;-88
2023/04/01 01:04:41;;;;;;;6.78;1.73;;;;;;;-148.88;100.00;74570.88;5062429;28;20037;-88
2023/04/01 01:07:27;;;;;;;4.18;1.98;;;;;;;-148.88;100.00;74572.91;5072982;28;20021;-87
2023/04/01 01:10:10;;;;;;;4.35;1.73;;;;;;;-148.88;100.00;74572.91;5072871;28;20040;-87
2023/04/01 01:12:50;;;;;;;3.67;1.70;;;;;;;-148.88;100.00;74572.91;5073650;28;20028;-87
2023/04/01 01:15:23;;;;;;;5.80;2.65;;;;;;;-148.88;100.00;74574.94;5073058;28;20107;-88
2023/04/01 01:18:15;;;;;;;5.88;2.65;;;;;;;-148.88;100.00;74570.88;5073070;28;20130;-88
2023/04/01 01:21:20;;;;;;;7.00;2.65;;;;;;;-148.88;100.00;74579.00;5072976;28;20035;-88
2023/04/01 01:24:31;;;;;;;3.22;1.65;;;;;;;-148.88;100.00;74581.03;5054892;28;20039;-88
2023/04/01 01:27:07;;;;;;;3.25;1.90;;;;;;;-148.88;100.00;74570.88;5024754;28;20429;-87
2023/04/01 01:30:00;;;;;;;5.85;1.67;;;;;;;-148.88;100.00;74574.94;5073064;28;20109;-88
2023/04/01 01:32:47;;;;;;;1.88;1.00;;;;;;;-148.88;100.00;74574.94;5073071;28;20033;-88
2023/04/01 01:35:22;;;;;;;2.92;1.27;;;;;;;-148.88;100.00;74583.06;5072929;28;20024;-88
2023/04/01 01:37:51;;;;;;;5.70;1.50;;;;;;;-148.88;100.00;74583.06;5073172;28;20100;-88
2023/04/01 01:40:18;;;;;;;3.28;1.38;;;;;;;-148.88;100.00;74587.13;5072831;28;20032;-87
2023/04/01 01:42:48;;;;;;;6.60;2.42;;;;;;;-148.88;100.00;74583.06;5055098;28;20033;-87
2023/04/01 01:45:17;;;;;;;2.90;1.50;;;;;;;-148.88;100.00;74581.03;5072842;28;20028;-88
2023/04/01 01:47:45;;;;;;;1.98;1.15;;;;;;;-148.88;100.00;74587.13;5054799;28;20486;-88
2023/04/01 01:50:11;;;;;;;4.72;1.50;;;;;;;-148.88;100.00;74587.13;5072691;28;20078;-87
2023/04/01 01:52:36;;;;;;;5.95;1.60;;;;;;;-148.88;100.00;74587.13;5054705;28;20020;-88
2023/04/01 01:55:02;;;;;;;4.55;1.48;;;;;;;-148.88;100.00;74581.03;5055187;28;20025;-87
2023/04/01 01:57:36;;;;;;;4.88;2.33;;;;;;;-148.88;100.00;74579.00;5075369;28;20081;-88
2023/04/01 02:00:07;;;;;;;;;;;;;;;-148.88;100.00;74581.03;5076829;28;20028;-87
2023/04/01 02:02:33;;;;;;;3.55;1.35;;;;;;;-148.88;100.00;74581.03;5058546;28;19966;-87
2023/04/01 02:04:59;;;;;;;3.60;1.60;;;;;;;-148.88;100.00;74579.00;5059286;28;20478;-88
2023/04/01 02:07:30;;;;;;;4.13;1.30;;;;;;;-148.88;100.00;74583.06;5058270;28;20032;-88
2023/04/01 02:09:56;;;;;;;2.88;1.50;;;;;;;-148.88;100.00;74579.00;5076082;28;20040;-88
2023/04/01 02:12:23;;;;;;;3.55;1.30;;;;;;;-148.88;100.00;74583.06;5058305;28;20091;-87
2023/04/01 02:14:57;;;;;;;3.67;1.27;;;;;;;-148.88;100.00;74583.06;5075972;28;20487;-87
2023/04/01 02:17:26;;;;;;;4.72;1.25;;;;;;;-148.88;100.00;74583.06;5076540;28;20494;-87
2023/04/01 02:20:04;;;;;;;8.43;1.70;;;;;;;-148.88;100.00;74579.00;5076135;28;20082;-88
2023/04/01 02:22:33;;;;;;;2.72;1.02;;;;;;;-148.88;100.00;74585.09;5076317;28;20074;-86
2023/04/01 02:25:04;;;;;;;2.90;1.30;;;;;;;-148.88;100.00;74581.03;5057885;28;20051;-86
2023/04/01 02:27:31;;;;;;;9.40;1.15;;;;;;;-148.88;100.00;74583.06;5075751;28;20039;-86
2023/04/01 02:29:57;;;;;;;3.30;1.90;;;;;;;-148.88;100.00;74583.06;5075670;28;20032;-86
2023/04/01 02:32:24;;;;;;;2.13;0.80;;;;;;;-148.88;100.00;74579.00;5075730;28;20055;-87
2023/04/01 02:34:50;;;;;;;2.28;1.10;;;;;;;-148.88;100.00;74579.00;5075775;28;20024;-87
2023/04/01 02:37:16;;;;;;;4.13;1.08;;;;;;;-148.88;100.00;74591.19;5075689;28;20096;-87
2023/04/01 02:39:42;;;;;;;3.17;1.27;;;;;;;-148.88;100.00;74593.22;5075707;28;20024;-87
2023/04/01 02:42:08;;;;;;;2.83;1.17;;;;;;;-148.88;100.00;74589.16;5075594;28;20016;-87
2023/04/01 02:44:34;;;;;;;2.38;1.20;;;;;;;-148.88;100.00;74591.19;5057467;28;20067;-87
2023/04/01 02:46:59;;;;;;;3.63;1.10;;;;;;;-148.88;100.00;74603.34;5058632;28;20025;-87
2023/04/01 02:49:25;;;;;;;5.00;1.38;;;;;;;-148.88;100.00;74597.25;5075305;28;20020;-87
2023/04/01 02:51:51;;;;;;;4.15;2.25;;;;;;;-148.88;100.00;74595.25;5057602;28;20024;-87
2023/04/01 02:54:17;;;;;;;4.50;1.40;;;;;;;-148.88;100.00;74605.38;5057912;28;20024;-87
2023/04/01 02:56:42;;;;;;;4.07;1.42;;;;;;;-148.88;100.00;74591.19;5075344;28;20020;-87
2023/04/01 02:59:07;;;;;;;3.17;1.40;;;;;;;-148.88;100.00;74601.31;5075285;28;20104;-88
2023/04/01 03:01:33;;;;;;;3.05;1.63;;;;;;;-148.88;100.00;74597.25;5058487;28;20500;-87
2023/04/01 03:03:58;;;;;;;2.97;1.38;;;;;;;-148.88;100.00;74603.34;5075072;28;20475;-86
2023/04/01 03:06:23;;;;;;;4.85;1.33;;;;;;;-148.88;100.00;74597.25;5075274;28;20058;-87
2023/04/01 03:08:48;;;;;;;4.90;2.45;;;;;;;-148.88;100.00;74601.31;5074338;28;20081;-87
2023/04/01 03:11:14;;;;;;;3.05;1.20;;;;;;;-148.88;100.00;74599.28;5075068;28;20115;-87
2023/04/01 03:13:39;;;;;;;3.80;1.83;;;;;;;-148.88;100.00;74601.31;5057090;28;20033;-87
2023/04/01 03:16:05;;;;;;;5.85;2.10;;;;;;;-148.88;100.00;74603.34;5074993;28;20025;-87
2023/04/01 03:18:30;;;;;;;2.35;0.93;;;;;;;-148.88;100.00;74607.41;5074865;28;20020;-86
2023/04/01 03:20:55;;;;;;;2.95;1.10;;;;;;;-148.88;100.00;74603.34;5056947;28;20020;-87
2023/04/01 03:23:21;;;;;;;3.30;0.98;;;;;;;-148.88;100.00;74605.38;5075064;28;20028;-88
2023/04/01 03:25:47;;;;;;;5.20;1.15;;;;;;;-148.88;100.00;74603.34;5056845;28;20064;-87
2023/04/01 03:28:13;;;;;;;3.55;1.30;;;;;;;-148.88;100.00;74607.41;5074586;28;20070;-87
2023/04/01 03:30:39;;;;;;;5.07;1.98;;;;;;;-148.88;100.00;74599.28;5074702;28;20021;-87
2023/04/01 03:33:04;;;;;;;2.30;0.80;;;;;;;-148.88;100.00;74611.47;5074705;28;20063;-87
2023/04/01 03:35:30;;;;;;;4.35;1.90;;;;;;;-148.88;100.00;74611.47;5056976;28;20024;-87
2023/04/01 03:37:55;;;;;;;4.22;1.15;;;;;;;-148.88;100.00;74611.47;5075078;28;20027;-85
2023/04/01 03:40:21;;;;;;;2.75;1.00;;;;;;;-148.88;100.00;74607.41;5056742;28;20036;-87
2023/04/01 03:42:47;;;;;;;3.17;1.10;;;;;;;-148.88;100.00;74611.47;5074427;28;20016;-87
2023/04/01 03:45:13;;;;;;;2.75;1.38;;;;;;;-148.88;100.00;74611.47;5074549;28;20024;-87
2023/04/01 03:47:39;;;;;;;2.03;0.95;;;;;;;-148.88;100.00;74611.47;5074313;28;20077;-86
2023/04/01 03:50:06;;;;;;;3.45;1.00;;;;;;;-148.88;100.00;74615.53;5074357;28;20020;-88
2023/04/01 03:52:31;;;;;;;3.05;1.00;;;;;;;-148.88;100.00;74611.47;5074209;28;20025;-87
2023/04/01 03:54:56;;;;;;;4.45;1.02;;;;;;;-148.88;100.00;74609.44;5074105;28;20027;-87
2023/04/01 03:57:25;;;;;;;4.22;1.15;;;;;;;-148.88;100.00;74607.41;5074597;28;20025;-87
2023/04/01 03:59:50;;;;;;;3.20;1.15;;;;;;;-148.88;100.00;74609.44;5074447;28;20057;-86
2023/04/01 04:02:15;;;;;;;2.33;1.30;;;;;;;-148.88;100.00;74609.44;5073990;28;20111;-88
2023/04/01 04:04:41;;;;;;;2.53;1.10;;;;;;;-148.88;100.00;74611.47;5074123;28;20027;-88
2023/04/01 04:07:06;;;;;;;2.88;1.13;;;;;;;-148.88;100.00;74603.34;5056105;28;20024;-88
2023/04/01 04:09:32;;;;;;;2.13;1.05;;;;;;;-148.88;100.00;74613.50;5056716;28;20028;-87
2023/04/01 04:11:57;;;;;;;1.73;0.82;;;;;;;-148.88;100.00;74611.47;5056319;28;20046;-87
2023/04/01 04:14:23;;;;;;;3.25;1.35;;;;;;;-148.88;100.00;74615.53;5059517;28;20029;-86
2023/04/01 04:16:48;;;;;;;1.88;1.00;;;;;;;-148.88;100.00;74615.53;5073919;28;20020;-84
2023/04/01 04:19:14;;;;;;;3.08;1.45;;;;;;;-148.88;100.00;74619.59;5073723;28;20367;-87
2023/04/01 04:21:41;;;;;;;2.58;0.95;;;;;;;-148.88;100.00;74617.56;5073174;28;20095;-86
2023/04/01 04:24:07;;;;;;;3.60;1.05;;;;;;;-148.88;100.00;74623.66;5073868;28;20028;-87
2023/04/01 04:26:32;;;;;;;2.45;0.93;;;;;;;-148.88;100.00;74623.66;5056530;28;20021;-87
2023/04/01 04:28:57;;;;;;;2.28;0.93;;;;;;;-148.88;100.00;74623.66;5074431;28;20044;-86
2023/04/01 04:31:24;;;;;;;3.10;0.82;;;;;;;-148.88;100.00;74619.59;5074755;28;20497;-89
2023/04/01 04:33:51;;;;;;;1.77;0.70;;;;;;;-148.88;100.00;74623.66;5073581;28;20020;-86
2023/04/01 04:36:16;;;;;;;2.95;0.70;;;;;;;-148.88;100.00;74623.66;5055759;28;20024;-86
2023/04/01 04:38:42;;;;;;;1.48;0.65;;;;;;;-148.88;100.00;74629.75;5055410;28;20025;-87
2023/04/01 04:41:14;;;;;;;2.20;0.70;;;;;;;-148.88;100.00;74625.69;5056581;28;20132;-87
2023/04/01 04:43:41;;;;;;;2.53;0.60;;;;;;;-148.88;100.00;74631.78;5055686;28;20433;-87
2023/04/01 04:46:10;;;;;;;3.80;1.67;;;;;;;-148.88;100.00;74631.78;5055471;28;20044;-86
2023/04/01 04:48:36;;;;;;;6.55;0.85;;;;;;;-148.88;100.00;74627.72;5076857;28;20106;-88
2023/04/01 04:51:02;;;;;;;2.10;0.80;;;;;;;-148.88;100.00;74631.78;5055452;28;20067;-87
2023/04/01 04:53:27;;;;;;;1.40;0.70;;;;;;;-148.88;100.00;74631.78;5055343;28;20024;-88
2023/04/01 04:55:53;;;;;;;1.30;0.85;;;;;;;-148.88;100.00;74623.66;5055718;28;20386;-89
2023/04/01 04:58:18;;;;;;;3.60;1.00;;;;;;;-148.88;100.00;74629.75;5073028;28;20497;-87
2023/04/01 05:00:44;;;;;;;2.13;0.60;;;;;;;-148.88;100.00;74635.84;5073316;28;20029;-87
2023/04/01 05:03:10;;;;;;;3.10;1.13;;;;;;;-148.88;100.00;74631.78;5055384;28;20026;-89
2023/04/01 05:05:37;;;;;;;2.30;1.05;;;;;;;-148.88;100.00;74635.84;5056089;28;20105;-87
2023/04/01 05:08:03;;;;;;;1.23;0.65;;;;;;;-148.88;100.00;74631.78;5038998;28;20036;-88
2023/04/01 05:10:29;;;;;;;2.95;0.80;;;;;;;-148.88;100.00;74633.81;5073533;28;20143;-90
2023/04/01 05:12:54;;;;;;;3.00;0.98;;;;;;;-148.88;100.00;74643.97;5036184;28;20037;-88
2023/04/01 05:15:20;;;;;;;1.17;0.80;;;;;;;-148.88;100.00;74643.97;5074294;28;20028;-91
2023/04/01 05:17:46;;;;;;;1.52;0.77;;;;;;;-148.88;100.00;74650.06;5057444;28;20021;-89
2023/04/01 05:20:13;;;;;;;2.50;1.35;;;;;;;-148.88;100.00;74650.06;5055205;28;20021;-89
2023/04/01 05:22:38;;;;;;;2.10;0.73;;;;;;;-148.88;100.00;74654.13;5056538;28;20074;-88
2023/04/01 05:25:04;;;;;;;1.48;0.60;;;;;;;-148.88;100.00;74650.06;5055694;28;20024;-90
2023/04/01 05:27:29;;;;;;;0.98;0.50;;;;;;;-148.88;100.00;74652.09;5055292;28;20509;-92
2023/04/01 05:29:55;;;;;;;1.70;0.60;;;;;;;-148.88;100.00;74652.09;5057788;28;20024;-89
2023/04/01 05:32:21;;;;;;;1.77;0.57;;;;;;;-148.88;100.00;74658.19;5075815;28;20028;-87
2023/04/01 05:34:46;;;;;;;0.73;0.52;;;;;;;-148.88;100.00;74662.25;5058913;28;20028;-88
2023/04/01 05:37:11;;;;;;;3.22;1.40;;;;;;;-148.88;100.00;74666.31;5077569;28;20032;-87
2023/04/01 05:39:37;;;;;;;1.63;0.90;;;;;;;-148.88;100.00;74660.22;5058932;28;20394;-88
2023/04/01 05:42:05;;;;;;;1.73;1.00;;;;;;;-148.88;100.00;74668.34;5076837;28;20059;-88
2023/04/01 05:44:30;;;;;;;2.33;1.00;;;;;;;-148.88;100.00;74664.28;5077593;28;20025;-84
2023/04/01 05:46:55;;;;;;;2.00;1.00;;;;;;;-148.88;100.00;74664.28;5079246;28;20035;-83
2023/04/01 05:49:21;;;;;;;1.38;0.77;;;;;;;-148.88;100.00;74666.31;5077038;28;20390;-85
2023/04/01 05:51:46;;;;;;;2.13;0.98;;;;;;;-148.88;100.00;74662.25;5076682;28;20087;-85
2023/04/01 05:54:12;;;;;;;2.83;1.30;;;;;;;-148.88;100.00;74670.38;5058460;28;20032;-85
2023/04/01 05:56:37;;;;;;;2.33;1.13;;;;;;;-148.88;100.00;74676.47;5058968;28;20025;-85
2023/04/01 05:59:03;;;;;;;2.75;1.50;;;;;;;-148.88;100.00;74676.47;5076183;28;20502;-84
2023/04/01 06:01:28;;;;;;;3.28;1.30;;;;;;;-148.88;100.00;74676.47;5076660;28;20077;-86
2023/04/01 06:03:54;;;;;;;3.20;2.22;;;;;;;-148.88;100.00;74666.31;5076340;28;20032;-84
2023/04/01 06:06:26;;;;;;;3.70;1.35;;;;;;;-148.88;100.00;74664.28;5076113;28;20070;-85
2023/04/01 06:08:53;;;;;;;2.67;1.27;;;;;;;-148.88;100.00;74674.44;5058247;28;20467;-84
2023/04/01 06:11:23;;;;;;;3.58;1.20;;;;;;;-148.88;100.00;74672.41;5076214;28;20028;-84
2023/04/01 06:14:00;;;;;;;2.45;1.20;;;;;;;-148.88;100.00;74672.41;5076270;28;20044;-85
2023/04/01 06:16:33;;;;;;;1.92;1.10;;;;;;;-148.88;100.00;74674.44;5076508;28;20086;-84
2023/04/01 06:19:11;;;;;;;;;;;;;;;-148.88;100.00;74672.41;5077039;28;20035;-84
2023/04/01 06:22:00;;;;;;;4.43;1.50;;;;;;;-148.88;100.00;74670.38;5076943;28;19958;-85
2023/04/01 06:25:13;;;;;;;2.25;1.30;;;;;;;-148.88;100.00;74672.41;5077456;28;20043;-85
2023/04/01 06:28:05;;;;;;;4.63;1.25;;;;;;;-148.88;100.00;74678.50;5071859;28;20043;-84
2023/04/01 06:30:34;;;;;;;2.95;1.20;;;;;;;-148.88;100.00;74676.47;5076721;28;20029;-84
2023/04/01 06:33:37;;;;;;;2.55;1.30;;;;;;;-148.88;100.00;74672.41;5076200;28;20024;-84
2023/04/01 06:36:30;;;;;;;3.10;1.20;;;;;;;-148.88;100.00;74680.53;5059232;28;20166;-84
2023/04/01 06:39:10;;;;;;;6.05;1.45;;;;;;;-148.88;100.00;74676.47;5076277;28;20081;-84
2023/04/01 06:42:12;;;;;;;2.35;1.00;;;;;;;-148.88;100.00;74670.38;5075644;28;20060;-85
2023/04/01 06:44:45;;;;;;;5.93;1.08;;;;;;;-148.88;100.00;74668.34;5074724;28;20020;-85
2023/04/01 06:47:34;;;;;;;2.17;1.23;;;;;;;-148.88;100.00;74672.41;5075859;28;20024;-84
2023/04/01 06:50:23;;;;;;;3.05;1.05;;;;;;;-148.88;100.00;74680.53;5057916;28;20364;-86
2023/04/01 06:53:07;;;;;;;1.77;1.00;;;;;;;-148.88;100.00;74658.19;5075849;28;20073;-85
2023/04/01 06:55:45;;;;;;;3.33;1.10;;;;;;;-148.88;100.00;74656.16;5075452;28;20490;-85
2023/04/01 06:58:20;;;;;;;1.73;0.90;;;;;;;-148.88;100.00;74656.16;5075633;28;20021;-86
2023/04/01 07:00:50;;;;;;;3.40;1.10;;;;;;;-148.88;100.00;74648.03;5075259;28;20134;-87
2023/04/01 07:03:32;;;;;;;2.25;1.23;;;;;;;-148.88;100.00;74672.41;5075316;28;20027;-85
2023/04/01 07:06:02;;;;;;;2.97;1.10;;;;;;;-148.88;100.00;74672.41;5075129;28;20020;-84
2023/04/01 07:08:30;;;;;;;3.95;1.08;;;;;;;-148.88;100.00;74680.53;5075527;28;20090;-86
2023/04/01 07:11:02;;;;;;;3.17;1.40;;;;;;;-148.88;100.00;74680.53;5075512;28;20028;-84
2023/04/01 07:13:30;;;;;;;2.35;1.20;;;;;;;-148.88;100.00;74682.56;5075250;28;20391;-85
2023/04/01 07:16:08;;;;;;;4.22;1.38;;;;;;;-148.88;100.00;74680.53;5075755;28;20479;-84
2023/04/01 07:18:48;;;;;;;3.03;1.33;;;;;;;-148.88;100.00;74676.47;5075079;28;20016;-86
2023/04/01 07:21:23;;;;;;;2.85;1.13;;;;;;;-148.88;100.00;74678.50;5075538;28;20027;-85
2023/04/01 07:23:51;;;;;;;3.63;2.00;;;;;;;-148.88;100.00;74684.59;5075169;28;20031;-84
2023/04/01 07:26:22;;;;;;;2.63;1.27;;;;;;;-148.88;100.00;74692.72;5074740;28;20167;-84
2023/04/01 07:28:50;;;;;;;2.42;1.20;;;;;;;-148.88;100.00;74690.69;5077147;28;20029;-85
2023/04/01 07:31:25;;;;;;;4.35;1.45;;;;;;;-148.88;100.00;74694.75;5075734;28;20062;-84
2023/04/01 07:34:12;;;;;;;3.90;2.63;;;;;;;-148.88;100.00;74692.72;5076120;28;20025;-84
2023/04/01 07:36:47;;;;;;;2.83;1.00;;;;;;;-148.88;100.00;74700.84;5056654;28;20020;-85
2023/04/01 07:39:22;;;;;;;4.18;1.50;;;;;;;-148.88;100.00;74713.00;5075031;28;20422;-85
2023/04/01 07:42:33;;;;;;;2.60;1.20;;;;;;;-148.88;100.00;74715.03;5075396;28;20020;-85
2023/04/01 07:45:13;;;;;;;2.47;1.20;;;;;;;-148.88;100.00;74715.03;5075070;28;20032;-84
2023/04/01 07:48:07;;;;;;;2.60;1.30;;;;;;;-148.88;100.00;74710.97;5074699;28;20027;-84
2023/04/01 07:50:41;;;;;;;3.65;1.35;;;;;;;-148.88;100.00;74725.19;5074724;28;20027;-84
2023/04/01 07:53:21;;;;;;;3.28;1.10;;;;;;;-148.88;100.00;74700.84;5077379;28;20100;-84
2023/04/01 07:56:05;;;;;;;2.50;1.38;;;;;;;-148.88;100.00;74581.03;5075830;28;20024;-84
2023/04/01 07:58:58;;;;;;;3.42;1.10;;;;;;;-148.88;100.00;74690.69;5077703;28;20021;-83
2023/04/01 08:01:47;;;;;;;2.63;1.20;;;;;;;-148.88;100.00;74684.59;5057980;28;20058;-84
2023/04/01 08:04:25;;;;;;;4.20;1.08;;;;;;;-148.88;100.00;74603.34;5076424;28;20056;-85
2023/04/01 08:06:58;;;;;;;3.22;1.38;;;;;;;-148.88;100.00;74607.41;5075906;28;20047;-85
2023/04/01 08:09:35;;;;;;;;;;;;;;;-148.88;100.00;74583.06;5057788;28;20155;-85
2023/04/01 08:12:04;;;;;;;2.35;1.92;;;;;;;-148.88;100.00;74597.25;5075923;28;20410;-85
2023/04/01 08:14:55;;;;;;;3.40;1.63;;;;;;;-148.88;100.00;74692.72;5075489;28;20047;-85
2023/04/01 08:17:49;;;;;;;2.42;1.30;;;;;;;-148.88;100.00;74463.25;5075780;28;20090;-85
2023/04/01 08:20:33;;;;;;;2.15;1.35;;;;;;;-148.88;100.00;74690.69;5076978;28;20127;-84
2023/04/01 08:23:10;;;;;;;3.10;1.52;;;;;;;-148.88;100.00;74481.53;5056908;28;20032;-84
2023/04/01 08:25:40;;;;;;;3.00;1.67;;;;;;;-148.88;100.00;74587.13;5059046;28;20032;-84
2023/04/01 08:28:08;;;;;;;3.85;2.10;;;;;;;-148.88;100.00;74607.41;5078491;28;20025;-84
2023/04/01 08:31:05;;;;;;;3.83;2.00;;;;;;;-148.88;100.00;74672.41;5079996;28;20468;-84
2023/04/01 08:33:32;;;;;;;3.05;1.30;;;;;;;-148.88;100.00;74652.09;5078714;28;20020;-85
2023/04/01 08:36:15;;;;;;;4.00;3.33;;;;;;;-148.88;100.00;74611.47;5075550;28;20074;-84
2023/04/01 08:38:43;;;;;;;4.20;1.63;;;;;;;-148.88;100.00;74611.47;5062375;28;20020;-84
2023/04/01 08:41:22;;;;;;;3.55;1.80;;;;;;;-148.88;100.00;74499.81;5060566;28;20050;-83
2023/04/01 08:44:06;;;;;;;4.57;3.15;;;;;;;-148.88;100.00;74280.50;5080564;28;20025;-84
2023/04/01 08:46:37;;;;;;;3.85;1.90;;;;;;;-148.88;100.00;74660.22;5080642;28;20491;-84
2023/04/01 08:49:21;;;;;;;5.75;2.05;;;;;;;-148.88;100.00;74686.63;5082295;28;20054;-85
2023/04/01 08:52:27;;;;;;;5.80;3.78;;;;;;;-148.88;100.00;74530.25;5078118;28;20021;-84
2023/04/01 08:55:05;;;;;;;5.80;2.80;;;;;;;-148.88;100.00;74583.06;5079730;28;20027;-83
2023/04/01 08:58:17;;;;;;;5.65;2.50;;;;;;;-148.88;100.00;74654.13;5080269;28;20028;-83
2023/04/01 09:01:14;;;;;;;5.78;4.38;;;;;;;-148.88;100.00;74633.81;5066099;28;20352;-84
2023/04/01 09:04:16;;;;;;;2.90;1.90;;;;;;;-148.88;100.00;74416.53;5081346;28;20123;-84
2023/04/01 09:07:16;;;;;;;4.15;2.15;;;;;;;-148.88;100.00;74382.03;5079438;28;20017;-84
2023/04/01 09:10:00;;;;;;;4.93;3.10;;;;;;;-148.88;100.00;74392.19;5061848;28;20029;-84
2023/04/01 09:12:50;;;;;;;6.20;4.20;;;;;;;-148.88;100.00;74501.81;5056039;28;20025;-84
2023/04/01 09:15:41;;;;;;;3.50;2.20;;;;;;;-148.88;100.00;74534.31;5076471;28;20020;-84
2023/04/01 09:18:37;;;;;;;4.90;3.80;;;;;;;-148.88;100.00;74558.69;5062712;28;20097;-83
2023/04/01 09:21:11;;;;;;;3.63;2.28;;;;;;;-148.88;100.00;74540.41;5064248;28;20046;-84
2023/04/01 09:24:22;;;;;;;5.43;2.53;;;;;;;-148.88;100.00;74489.66;5081410;28;20020;-84
2023/04/01 09:27:12;;;;;;;3.75;2.15;;;;;;;-148.88;100.00;74518.06;5081813;28;20024;-85
2023/04/01 09:30:19;;;;;;;3.95;2.13;;;;;;;-148.88;100.00;74505.88;5074809;28;20435;-85
2023/04/01 09:32:58;;;;;;;4.80;3.90;;;;;;;-148.88;100.00;74522.13;5055263;28;20025;-85
2023/04/01 09:35:38;;;;;;;5.78;4.30;;;;;;;-148.88;100.00;74514.00;5077158;28;20093;-84
2023/04/01 09:38:21;;;;;;;5.05;4.22;;;;;;;-148.88;100.00;74487.63;5083486;28;20371;-83
2023/04/01 09:41:07;;;;;;;3.90;2.10;;;;;;;-148.88;100.00;74457.16;5085092;28;20025;-83
2023/04/01 09:44:03;;;;;;;4.22;3.72;;;;;;;-148.88;100.00;74428.72;5062383;28;20518;-83
2023/04/01 09:46:40;;;;;;;4.50;3.75;;;;;;;-148.88;100.00;74444.97;5060841;28;20033;-83
2023/04/01 09:49:24;;;;;;;4.40;2.10;;;;;;;-148.88;100.00;74428.72;5081505;28;20051;-83
2023/04/01 09:52:02;;;;;;;;;;;;;;;-148.88;100.00;74351.56;5082595;28;20081;-82
2023/04/01 09:54:34;;;;;;;3.53;2.35;;;;;;;-148.88;100.00;74278.47;5082108;28;20338;-83
2023/04/01 09:57:17;;;;;;;5.90;3.95;;;;;;;-148.88;100.00;74308.94;5081770;28;20031;-83
2023/04/01 10:00:15;;;;;;;4.65;3.90;;;;;;;-148.88;100.00;74233.81;5081336;28;20111;-83
2023/04/01 10:03:08;;;;;;;4.75;3.70;;;;;;;-148.88;100.00;74290.66;5038336;28;20056;-83
2023/04/01 10:05:58;;;;;;;5.05;3.60;;;;;;;-148.88;100.00;74288.63;5081458;28;20029;-83
2023/04/01 10:09:01;;;;;;;3.90;3.50;;;;;;;-148.88;100.00;74241.94;5060115;28;20092;-83
2023/04/01 10:11:44;;;;;;;5.05;3.40;;;;;;;-148.88;100.00;74264.25;5080603;28;20032;-83
2023/04/01 10:14:34;;;;;;;4.18;3.55;;;;;;;-148.88;100.00;74363.75;5080944;28;20134;-83
2023/04/01 10:17:39;;;;;;;5.10;3.47;;;;;;;-148.88;100.00;74302.84;5075707;28;20032;-84
2023/04/01 10:20:26;;;;;;;3.20;2.10;;;;;;;-148.88;100.00;74331.25;5085898;28;20036;-83
2023/04/01 10:23:22;;;;;;;4.43;2.67;;;;;;;-148.88;100.00;74304.88;5085013;28;20527;-82
2023/04/01 10:26:21;;;;;;;3.13;1.70;;;;;;;-148.88;100.00;74254.09;5067565;28;20028;-82
2023/04/01 10:29:21;;;;;;;3.78;2.55;;;;;;;-148.88;100.00;74345.47;5066636;28;20042;-83
2023/04/01 10:32:23;;;;;;;4.03;2.95;;;;;;;-148.88;100.00;74282.53;5067970;28;20079;-83
2023/04/01 10:35:28;;;;;;;2.35;1.48;;;;;;;-148.88;100.00;74331.25;5065234;28;20024;-83
2023/04/01 10:37:53;;;;;;;;;;;;;;;-148.88;100.00;74351.56;5086945;28;20024;-83
2023/04/01 10:40:51;;;;;;;4.60;2.53;;;;;;;-148.88;100.00;74325.19;5085098;28;19908;-83
2023/04/01 10:43:40;;;;;;;2.90;2.08;;;;;;;-148.88;100.00;74339.38;5063551;28;20253;-83
2023/04/01 10:46:41;;;;;;;2.35;1.80;;;;;;;-148.88;100.00;74375.94;5066793;28;20032;-83
2023/04/01 10:49:42;;;;;;;3.72;1.88;;;;;;;-148.88;100.00;74382.03;5014765;28;20593;-84
2023/04/01 10:52:45;;;;;;;2.40;1.83;;;;;;;-148.88;100.00;74420.59;5059715;28;20483;-83
2023/04/01 10:55:29;;;;;;;6.18;2.20;;;;;;;-148.88;100.00;74361.72;5083738;28;20016;-84
2023/04/01 10:58:13;;;;;;;;;;;;;;;-148.88;100.00;74400.31;5065945;28;20020;-83
2023/04/01 11:01:03;;;;;;;3.25;1.83;;;;;;;-148.88;100.00;74335.31;5067808;28;19908;-83
2023/04/01 11:04:06;;;;;;;2.25;1.77;;;;;;;-148.88;100.00;74351.56;5067522;28;20028;-83
2023/04/01 11:07:02;;;;;;;2.50;1.80;;;;;;;-148.88;100.00;74292.69;5066504;28;20050;-83
2023/04/01 11:09:56;;;;;;;3.72;1.67;;;;;;;-148.88;100.00;74298.78;5084625;28;20048;-83
2023/04/01 11:13:00;;;;;;;1.40;1.00;;;;;;;-148.88;100.00;74394.22;5067633;28;20467;-83
2023/04/01 11:15:47;;;;;;;2.35;1.10;;;;;;;-148.88;100.00;74380.00;5078778;28;20485;-85
2023/04/01 11:18:39;;;;;;;1.75;0.80;;;;;;;-148.88;100.00;74416.53;5076991;28;20439;-84
2023/04/01 11:21:42;;;;;;;1.48;1.00;;;;;;;-148.88;100.00;74345.47;5060740;28;20048;-84
2023/04/01 11:24:20;;;;;;;1.23;0.70;;;;;;;-148.88;100.00;74384.06;5080112;28;20074;-84
2023/04/01 11:27:04;;;;;;;1.83;0.95;;;;;;;-148.88;100.00;74392.19;5079298;28;20056;-84
2023/04/01 11:30:17;;;;;;;1.98;1.30;;;;;;;-148.88;100.00;74286.59;5076799;28;20048;-85
2023/04/01 11:32:59;;;;;;;1.90;1.33;;;;;;;-148.88;100.00;74195.22;4998400;28;20512;-84
2023/04/01 11:35:47;;;;;;;1.98;1.20;;;;;;;-148.88;100.00;74313.00;5074261;28;20131;-85
2023/04/01 11:38:28;;;;;;;1.65;1.20;;;;;;;-148.88;100.00;74274.41;5074784;28;20031;-84
2023/04/01 11:41:34;;;;;;;2.40;1.23;;;;;;;-148.88;100.00;74302.84;5075099;28;20017;-85
2023/04/01 11:44:17;;;;;;;1.70;1.10;;;;;;;-148.88;100.00;74329.22;5056952;28;20020;-85
2023/04/01 11:47:18;;;;;;;1.75;1.10;;;;;;;-148.88;100.00;74361.72;5075077;28;20024;-85
2023/04/01 11:50:15;;;;;;;2.22;1.25;;;;;;;-148.88;100.00;74353.59;5069123;28;20041;-84